Argyle, FL

3:11 PM CST on February 11, 2016 (GMT -0600)
WZEP AM 1460 DeFuniak Springs, FL | | Change Station
CLOSE
Current Station
Personal Weather Station
Location: DeFuniak Springs, FL
Elevation: 174 ft
Nearby Weather Stations
Active Advisory: Flood Warning

Elev 174 ft 30.73 °N, 86.12 °W | Updated 13 seconds ago

Clear
Clear
66.7 °F
Feels Like 66.7 °F
N
0.0
Wind Variable Wind from North
Gusts 0.0 mph

Today
High -- | Low -- °F
--% Chance of Precip.
Yesterday
High -- | Low -- °F
Precip. -- in
Pressure 30.13 in
Visibility 10.0 miles
Clouds Clear
Dew Point 55 °F
Humidity 66%
Rainfall 0.00 in
Snow Depth Not available.
6:28 AM 5:28 PM
Waxing Crescent, 14% visible
METAR K54J 112055Z AUTO 22011G16KT 10SM CLR 20/11 A3013 RMK AO2 T01950111
Pressure 30.13 in
Visibility 10.0 miles
Clouds Clear
Dew Point 55 °F
Humidity 66%
Rainfall 0.00 in
Snow Depth Not available.
6:28 AM 5:28 PM
Waxing Crescent, 14% visible
METAR K54J 112055Z AUTO 22011G16KT 10SM CLR 20/11 A3013 RMK AO2 T01950111

10-Day Weather Forecast

Almanac

Astronomy

Feb. 11, 2016 Rise Set
Actual Time
Civil Twilight
Nautical Twilight
Astronomical Twilight
Moon
Length of Visible Light
Length of Day
Tomorrow will be .
, % of the Moon is Illuminated

Today's Extremes

State Highs State Lows

Community

WunderPhotos

Upload Photos

1,892,159 photos uploaded!

WunderBlog® & News

Nearby

Air Quality

  Air Quality AQ Index Pollutant
Not available.

Snow Depth

Station Depth Elevation

Earthquake Activity

City Distance Mag. Time & Date
Minimum magnitude displayed is 2.5.

Coastal Water Temperatures

Place Temperature

Stations

Nearby Weather Stations

Station Location Temp. Windchill Dew Point Humidity Wind Precip. Elev Updated Type
                   

Watches & Warnings

Flood Warning
Issued: 7:39 AM CST Feb. 11, 2016 – National Weather Service

... Flood Warning extended until Sunday morning... the Flood Warning
continues for
the Choctawhatchee River near Bruce (sr 20).
* Until Sunday morning.
* At 6:45 am Thursday the stage was 14.2 feet.
* Moderate flooding is occurring and moderate flooding is forecast.
* Flood stage is 13.0 feet.
* Forecast: the river will continue to fall to below flood stage by
early Sunday morning.
* Impact: at 14.0 feet: flood waters impact storage areas underneath
homes on the east and west banks of the choctawatchee river near
Bruce.


Lat... Lon 3070 8592 3047 8596 3044 8613 3037 8609 3044 8585 3070 8581